sensor_id;sensor_type;location;lat;lon;timestamp;P1;durP1;ratioP1;P2;durP2;ratioP2
53293;SDS011;39181;53.440;5.644;2023-05-21T00:00:48;14.30;;;3.60;;
53293;SDS011;39181;53.440;5.644;2023-05-21T00:03:15;13.00;;;2.80;;
53293;SDS011;39181;53.440;5.644;2023-05-21T00:05:41;13.80;;;3.50;;
53293;SDS011;39181;53.440;5.644;2023-05-21T00:08:11;15.93;;;3.25;;
53293;SDS011;39181;53.440;5.644;2023-05-21T00:10:38;9.38;;;3.05;;
53293;SDS011;39181;53.440;5.644;2023-05-21T00:13:03;13.73;;;2.92;;
53293;SDS011;39181;53.440;5.644;2023-05-21T00:15:29;12.10;;;2.97;;
53293;SDS011;39181;53.440;5.644;2023-05-21T00:17:54;11.48;;;3.25;;
53293;SDS011;39181;53.440;5.644;2023-05-21T00:20:20;13.57;;;2.70;;
53293;SDS011;39181;53.440;5.644;2023-05-21T00:22:46;11.20;;;3.28;;
53293;SDS011;39181;53.440;5.644;2023-05-21T00:25:12;12.20;;;2.72;;
53293;SDS011;39181;53.440;5.644;2023-05-21T00:27:37;11.38;;;2.78;;
53293;SDS011;39181;53.440;5.644;2023-05-21T00:30:03;13.48;;;3.58;;
53293;SDS011;39181;53.440;5.644;2023-05-21T00:32:30;10.73;;;3.22;;
53293;SDS011;39181;53.440;5.644;2023-05-21T00:34:55;15.75;;;3.05;;
53293;SDS011;39181;53.440;5.644;2023-05-21T00:37:22;11.65;;;2.97;;
53293;SDS011;39181;53.440;5.644;2023-05-21T00:39:48;12.82;;;2.83;;
53293;SDS011;39181;53.440;5.644;2023-05-21T00:42:15;8.55;;;2.58;;
53293;SDS011;39181;53.440;5.644;2023-05-21T00:44:42;12.57;;;3.28;;
53293;SDS011;39181;53.440;5.644;2023-05-21T00:47:09;16.30;;;3.10;;
53293;SDS011;39181;53.440;5.644;2023-05-21T00:49:37;14.30;;;3.58;;
53293;SDS011;39181;53.440;5.644;2023-05-21T00:52:02;13.43;;;3.03;;
53293;SDS011;39181;53.440;5.644;2023-05-21T00:54:29;12.45;;;3.28;;
53293;SDS011;39181;53.440;5.644;2023-05-21T00:56:55;16.33;;;2.97;;
53293;SDS011;39181;53.440;5.644;2023-05-21T00:59:22;15.18;;;3.45;;
53293;SDS011;39181;53.440;5.644;2023-05-21T01:01:48;13.68;;;2.80;;
53293;SDS011;39181;53.440;5.644;2023-05-21T01:04:21;17.30;;;3.20;;
53293;SDS011;39181;53.440;5.644;2023-05-21T01:06:50;10.95;;;2.85;;
53293;SDS011;39181;53.440;5.644;2023-05-21T01:09:17;11.52;;;3.13;;
53293;SDS011;39181;53.440;5.644;2023-05-21T01:11:45;12.52;;;2.80;;
53293;SDS011;39181;53.440;5.644;2023-05-21T01:14:12;13.60;;;3.70;;
53293;SDS011;39181;53.440;5.644;2023-05-21T01:16:40;13.80;;;3.30;;
53293;SDS011;39181;53.440;5.644;2023-05-21T01:19:12;16.73;;;2.85;;
53293;SDS011;39181;53.440;5.644;2023-05-21T01:21:40;10.85;;;3.03;;
53293;SDS011;39181;53.440;5.644;2023-05-21T01:24:08;12.82;;;2.92;;
53293;SDS011;39181;53.440;5.644;2023-05-21T01:26:34;9.18;;;2.47;;
53293;SDS011;39181;53.440;5.644;2023-05-21T01:29:05;10.00;;;2.95;;
53293;SDS011;39181;53.440;5.644;2023-05-21T01:31:40;14.25;;;2.85;;
53293;SDS011;39181;53.440;5.644;2023-05-21T01:34:11;15.25;;;3.40;;
53293;SDS011;39181;53.440;5.644;2023-05-21T01:36:42;13.80;;;3.42;;
53293;SDS011;39181;53.440;5.644;2023-05-21T01:39:16;18.00;;;3.35;;
53293;SDS011;39181;53.440;5.644;2023-05-21T01:41:47;15.02;;;3.78;;
53293;SDS011;39181;53.440;5.644;2023-05-21T01:44:17;12.88;;;2.70;;
53293;SDS011;39181;53.440;5.644;2023-05-21T01:46:43;13.13;;;2.95;;
53293;SDS011;39181;53.440;5.644;2023-05-21T01:49:09;14.48;;;4.18;;
53293;SDS011;39181;53.440;5.644;2023-05-21T01:51:35;16.55;;;3.28;;
53293;SDS011;39181;53.440;5.644;2023-05-21T01:54:01;13.63;;;2.80;;
53293;SDS011;39181;53.440;5.644;2023-05-21T01:56:27;8.60;;;2.42;;
53293;SDS011;39181;53.440;5.644;2023-05-21T01:58:54;9.32;;;2.88;;
53293;SDS011;39181;53.440;5.644;2023-05-21T02:01:21;17.58;;;3.30;;
53293;SDS011;39181;53.440;5.644;2023-05-21T02:03:46;10.95;;;3.10;;
53293;SDS011;39181;53.440;5.644;2023-05-21T02:06:12;12.25;;;3.20;;
53293;SDS011;39181;53.440;5.644;2023-05-21T02:08:37;11.20;;;3.28;;
53293;SDS011;39181;53.440;5.644;2023-05-21T02:11:03;14.82;;;3.10;;
53293;SDS011;39181;53.440;5.644;2023-05-21T02:13:29;15.73;;;3.10;;
53293;SDS011;39181;53.440;5.644;2023-05-21T02:15:54;9.25;;;2.40;;
53293;SDS011;39181;53.440;5.644;2023-05-21T02:18:20;10.32;;;2.45;;
53293;SDS011;39181;53.440;5.644;2023-05-21T02:20:45;13.02;;;2.50;;
53293;SDS011;39181;53.440;5.644;2023-05-21T02:23:11;12.70;;;2.33;;
53293;SDS011;39181;53.440;5.644;2023-05-21T02:25:37;16.25;;;2.80;;
53293;SDS011;39181;53.440;5.644;2023-05-21T02:28:02;11.65;;;2.70;;
53293;SDS011;39181;53.440;5.644;2023-05-21T02:30:28;11.90;;;3.00;;
53293;SDS011;39181;53.440;5.644;2023-05-21T02:32:54;9.35;;;2.83;;
53293;SDS011;39181;53.440;5.644;2023-05-21T02:35:19;13.27;;;3.17;;
53293;SDS011;39181;53.440;5.644;2023-05-21T02:37:45;10.50;;;3.78;;
53293;SDS011;39181;53.440;5.644;2023-05-21T02:40:11;10.90;;;2.70;;
53293;SDS011;39181;53.440;5.644;2023-05-21T02:42:37;8.85;;;2.65;;
53293;SDS011;39181;53.440;5.644;2023-05-21T02:45:07;11.18;;;3.20;;
53293;SDS011;39181;53.440;5.644;2023-05-21T02:47:34;13.00;;;2.70;;
53293;SDS011;39181;53.440;5.644;2023-05-21T02:49:59;13.52;;;2.60;;
53293;SDS011;39181;53.440;5.644;2023-05-21T02:52:26;11.65;;;2.45;;
53293;SDS011;39181;53.440;5.644;2023-05-21T02:54:52;10.88;;;2.22;;
53293;SDS011;39181;53.440;5.644;2023-05-21T02:57:17;15.30;;;2.47;;
53293;SDS011;39181;53.440;5.644;2023-05-21T02:59:43;9.68;;;2.22;;
53293;SDS011;39181;53.440;5.644;2023-05-21T03:02:09;11.88;;;3.00;;
53293;SDS011;39181;53.440;5.644;2023-05-21T03:04:35;19.20;;;3.53;;
53293;SDS011;39181;53.440;5.644;2023-05-21T03:07:03;10.80;;;3.08;;
53293;SDS011;39181;53.440;5.644;2023-05-21T03:09:29;10.48;;;2.58;;
53293;SDS011;39181;53.440;5.644;2023-05-21T03:11:54;11.85;;;2.95;;
53293;SDS011;39181;53.440;5.644;2023-05-21T03:14:20;12.15;;;3.20;;
53293;SDS011;39181;53.440;5.644;2023-05-21T03:16:47;11.80;;;2.90;;
53293;SDS011;39181;53.440;5.644;2023-05-21T03:19:13;10.65;;;2.75;;
53293;SDS011;39181;53.440;5.644;2023-05-21T03:21:39;9.57;;;3.03;;
53293;SDS011;39181;53.440;5.644;2023-05-21T03:24:04;14.73;;;2.72;;
53293;SDS011;39181;53.440;5.644;2023-05-21T03:26:30;13.77;;;3.17;;
53293;SDS011;39181;53.440;5.644;2023-05-21T03:28:56;11.48;;;2.65;;
53293;SDS011;39181;53.440;5.644;2023-05-21T03:31:22;10.38;;;3.15;;
53293;SDS011;39181;53.440;5.644;2023-05-21T03:33:48;10.93;;;2.65;;
53293;SDS011;39181;53.440;5.644;2023-05-21T03:36:15;12.65;;;2.97;;
53293;SDS011;39181;53.440;5.644;2023-05-21T03:38:41;15.73;;;3.00;;
53293;SDS011;39181;53.440;5.644;2023-05-21T03:41:07;15.23;;;2.80;;
53293;SDS011;39181;53.440;5.644;2023-05-21T03:43:32;10.85;;;2.38;;
53293;SDS011;39181;53.440;5.644;2023-05-21T03:45:58;8.25;;;2.45;;
53293;SDS011;39181;53.440;5.644;2023-05-21T03:48:24;10.38;;;3.00;;
53293;SDS011;39181;53.440;5.644;2023-05-21T03:50:49;6.85;;;2.75;;
53293;SDS011;39181;53.440;5.644;2023-05-21T03:53:15;10.20;;;3.13;;
53293;SDS011;39181;53.440;5.644;2023-05-21T03:55:41;9.32;;;3.17;;
53293;SDS011;39181;53.440;5.644;2023-05-21T03:58:06;10.75;;;2.75;;
53293;SDS011;39181;53.440;5.644;2023-05-21T04:00:33;12.02;;;2.95;;
53293;SDS011;39181;53.440;5.644;2023-05-21T04:03:01;10.80;;;2.90;;
53293;SDS011;39181;53.440;5.644;2023-05-21T04:05:31;15.80;;;3.03;;
53293;SDS011;39181;53.440;5.644;2023-05-21T04:07:57;7.57;;;2.60;;
53293;SDS011;39181;53.440;5.644;2023-05-21T04:10:22;15.70;;;3.03;;
53293;SDS011;39181;53.440;5.644;2023-05-21T04:12:48;15.80;;;2.83;;
53293;SDS011;39181;53.440;5.644;2023-05-21T04:15:16;14.05;;;2.38;;
53293;SDS011;39181;53.440;5.644;2023-05-21T04:17:42;11.50;;;2.45;;
53293;SDS011;39181;53.440;5.644;2023-05-21T04:20:09;12.98;;;2.22;;
53293;SDS011;39181;53.440;5.644;2023-05-21T04:22:37;14.05;;;3.00;;
53293;SDS011;39181;53.440;5.644;2023-05-21T04:25:06;14.70;;;2.72;;
53293;SDS011;39181;53.440;5.644;2023-05-21T04:27:32;9.48;;;2.97;;
53293;SDS011;39181;53.440;5.644;2023-05-21T04:29:58;12.63;;;2.60;;
53293;SDS011;39181;53.440;5.644;2023-05-21T04:32:24;12.90;;;2.92;;
53293;SDS011;39181;53.440;5.644;2023-05-21T04:34:49;13.50;;;2.97;;
53293;SDS011;39181;53.440;5.644;2023-05-21T04:37:15;11.38;;;3.00;;
53293;SDS011;39181;53.440;5.644;2023-05-21T04:39:43;9.32;;;2.40;;
53293;SDS011;39181;53.440;5.644;2023-05-21T04:42:10;15.07;;;2.80;;
53293;SDS011;39181;53.440;5.644;2023-05-21T04:44:37;12.07;;;2.80;;
53293;SDS011;39181;53.440;5.644;2023-05-21T04:47:04;11.25;;;2.75;;
53293;SDS011;39181;53.440;5.644;2023-05-21T04:49:30;8.30;;;2.13;;
53293;SDS011;39181;53.440;5.644;2023-05-21T04:51:55;13.48;;;2.88;;
53293;SDS011;39181;53.440;5.644;2023-05-21T04:54:23;13.20;;;2.50;;
53293;SDS011;39181;53.440;5.644;2023-05-21T04:56:49;7.60;;;2.22;;
53293;SDS011;39181;53.440;5.644;2023-05-21T04:59:14;13.40;;;2.60;;
53293;SDS011;39181;53.440;5.644;2023-05-21T05:01:40;8.80;;;2.60;;
53293;SDS011;39181;53.440;5.644;2023-05-21T05:04:07;9.95;;;2.85;;
53293;SDS011;39181;53.440;5.644;2023-05-21T05:06:33;7.40;;;2.13;;
53293;SDS011;39181;53.440;5.644;2023-05-21T05:08:59;6.07;;;2.20;;
53293;SDS011;39181;53.440;5.644;2023-05-21T05:11:24;13.65;;;2.53;;
53293;SDS011;39181;53.440;5.644;2023-05-21T05:13:50;8.40;;;2.33;;
53293;SDS011;39181;53.440;5.644;2023-05-21T05:16:16;10.35;;;2.17;;
53293;SDS011;39181;53.440;5.644;2023-05-21T05:18:48;7.70;;;2.38;;
53293;SDS011;39181;53.440;5.644;2023-05-21T05:21:17;13.07;;;3.08;;
53293;SDS011;39181;53.440;5.644;2023-05-21T05:23:43;10.93;;;2.40;;
53293;SDS011;39181;53.440;5.644;2023-05-21T05:26:09;11.77;;;2.58;;
53293;SDS011;39181;53.440;5.644;2023-05-21T05:28:35;14.23;;;2.42;;
53293;SDS011;39181;53.440;5.644;2023-05-21T05:31:00;10.23;;;2.28;;
53293;SDS011;39181;53.440;5.644;2023-05-21T05:33:26;10.07;;;2.13;;
53293;SDS011;39181;53.440;5.644;2023-05-21T05:35:52;14.90;;;3.10;;
53293;SDS011;39181;53.440;5.644;2023-05-21T05:38:17;9.25;;;2.70;;
53293;SDS011;39181;53.440;5.644;2023-05-21T05:40:43;12.27;;;3.00;;
53293;SDS011;39181;53.440;5.644;2023-05-21T05:43:09;11.38;;;2.20;;
53293;SDS011;39181;53.440;5.644;2023-05-21T05:45:34;12.68;;;2.67;;
53293;SDS011;39181;53.440;5.644;2023-05-21T05:48:00;8.95;;;1.90;;
53293;SDS011;39181;53.440;5.644;2023-05-21T05:50:26;14.35;;;2.50;;
53293;SDS011;39181;53.440;5.644;2023-05-21T05:52:51;10.43;;;2.22;;
53293;SDS011;39181;53.440;5.644;2023-05-21T05:55:17;7.60;;;2.45;;
53293;SDS011;39181;53.440;5.644;2023-05-21T05:57:43;11.82;;;2.38;;
53293;SDS011;39181;53.440;5.644;2023-05-21T06:00:11;12.02;;;2.20;;
53293;SDS011;39181;53.440;5.644;2023-05-21T06:02:37;7.35;;;2.40;;
53293;SDS011;39181;53.440;5.644;2023-05-21T06:05:03;13.18;;;2.50;;
53293;SDS011;39181;53.440;5.644;2023-05-21T06:07:30;10.23;;;2.58;;
53293;SDS011;39181;53.440;5.644;2023-05-21T06:09:56;9.38;;;2.22;;
53293;SDS011;39181;53.440;5.644;2023-05-21T06:12:22;9.63;;;2.67;;
53293;SDS011;39181;53.440;5.644;2023-05-21T06:14:47;6.95;;;2.10;;
53293;SDS011;39181;53.440;5.644;2023-05-21T06:17:13;8.95;;;2.28;;
53293;SDS011;39181;53.440;5.644;2023-05-21T06:19:39;13.23;;;2.58;;
53293;SDS011;39181;53.440;5.644;2023-05-21T06:22:05;13.48;;;2.35;;
53293;SDS011;39181;53.440;5.644;2023-05-21T06:24:30;9.02;;;2.53;;
53293;SDS011;39181;53.440;5.644;2023-05-21T06:26:58;9.75;;;2.47;;
53293;SDS011;39181;53.440;5.644;2023-05-21T06:29:24;8.68;;;2.28;;
53293;SDS011;39181;53.440;5.644;2023-05-21T06:31:50;9.32;;;2.55;;
53293;SDS011;39181;53.440;5.644;2023-05-21T06:34:15;8.82;;;2.22;;
53293;SDS011;39181;53.440;5.644;2023-05-21T06:36:41;11.73;;;2.53;;
53293;SDS011;39181;53.440;5.644;2023-05-21T06:39:07;6.22;;;1.98;;
53293;SDS011;39181;53.440;5.644;2023-05-21T06:41:32;12.10;;;2.50;;
53293;SDS011;39181;53.440;5.644;2023-05-21T06:43:58;7.50;;;2.42;;
53293;SDS011;39181;53.440;5.644;2023-05-21T06:46:23;9.15;;;2.67;;
53293;SDS011;39181;53.440;5.644;2023-05-21T06:48:49;11.80;;;2.22;;
53293;SDS011;39181;53.440;5.644;2023-05-21T06:51:15;6.65;;;2.28;;
53293;SDS011;39181;53.440;5.644;2023-05-21T06:53:40;9.90;;;2.42;;
53293;SDS011;39181;53.440;5.644;2023-05-21T06:56:06;8.88;;;2.65;;
53293;SDS011;39181;53.440;5.644;2023-05-21T06:58:31;9.60;;;1.95;;
53293;SDS011;39181;53.440;5.644;2023-05-21T07:00:58;9.15;;;2.33;;
53293;SDS011;39181;53.440;5.644;2023-05-21T07:03:24;6.05;;;1.88;;
53293;SDS011;39181;53.440;5.644;2023-05-21T07:05:51;11.30;;;2.90;;
53293;SDS011;39181;53.440;5.644;2023-05-21T07:08:17;7.40;;;1.90;;
53293;SDS011;39181;53.440;5.644;2023-05-21T07:10:44;15.77;;;2.72;;
53293;SDS011;39181;53.440;5.644;2023-05-21T07:13:10;6.20;;;2.88;;
53293;SDS011;39181;53.440;5.644;2023-05-21T07:15:36;7.53;;;2.08;;
53293;SDS011;39181;53.440;5.644;2023-05-21T07:18:02;9.45;;;2.25;;
53293;SDS011;39181;53.440;5.644;2023-05-21T07:20:27;11.05;;;2.53;;
53293;SDS011;39181;53.440;5.644;2023-05-21T07:22:53;7.57;;;2.17;;
53293;SDS011;39181;53.440;5.644;2023-05-21T07:25:19;6.95;;;2.35;;
53293;SDS011;39181;53.440;5.644;2023-05-21T07:27:45;8.90;;;2.55;;
53293;SDS011;39181;53.440;5.644;2023-05-21T07:30:10;12.20;;;2.40;;
53293;SDS011;39181;53.440;5.644;2023-05-21T07:32:36;6.82;;;2.10;;
53293;SDS011;39181;53.440;5.644;2023-05-21T07:35:02;5.40;;;1.95;;
53293;SDS011;39181;53.440;5.644;2023-05-21T07:37:27;8.55;;;1.95;;
53293;SDS011;39181;53.440;5.644;2023-05-21T07:39:54;5.85;;;2.50;;
53293;SDS011;39181;53.440;5.644;2023-05-21T07:42:22;9.50;;;2.60;;
53293;SDS011;39181;53.440;5.644;2023-05-21T07:44:48;6.00;;;2.22;;
53293;SDS011;39181;53.440;5.644;2023-05-21T07:47:13;9.60;;;1.90;;
53293;SDS011;39181;53.440;5.644;2023-05-21T07:49:39;5.20;;;1.75;;
53293;SDS011;39181;53.440;5.644;2023-05-21T07:52:05;7.93;;;2.22;;
53293;SDS011;39181;53.440;5.644;2023-05-21T07:54:31;9.23;;;2.00;;
53293;SDS011;39181;53.440;5.644;2023-05-21T07:56:56;4.85;;;1.92;;
53293;SDS011;39181;53.440;5.644;2023-05-21T07:59:22;7.10;;;1.80;;
53293;SDS011;39181;53.440;5.644;2023-05-21T08:01:48;9.32;;;2.28;;
53293;SDS011;39181;53.440;5.644;2023-05-21T08:04:14;7.03;;;2.05;;
53293;SDS011;39181;53.440;5.644;2023-05-21T08:06:39;6.38;;;2.17;;
53293;SDS011;39181;53.440;5.644;2023-05-21T08:09:05;6.85;;;2.17;;
53293;SDS011;39181;53.440;5.644;2023-05-21T08:11:30;13.15;;;2.22;;
53293;SDS011;39181;53.440;5.644;2023-05-21T08:13:57;8.48;;;1.90;;
53293;SDS011;39181;53.440;5.644;2023-05-21T08:16:22;7.35;;;2.00;;
53293;SDS011;39181;53.440;5.644;2023-05-21T08:18:48;9.55;;;2.53;;
53293;SDS011;39181;53.440;5.644;2023-05-21T08:21:14;5.35;;;1.90;;
53293;SDS011;39181;53.440;5.644;2023-05-21T08:23:41;9.25;;;2.30;;
53293;SDS011;39181;53.440;5.644;2023-05-21T08:26:06;7.95;;;2.42;;
53293;SDS011;39181;53.440;5.644;2023-05-21T08:28:32;7.43;;;2.53;;
53293;SDS011;39181;53.440;5.644;2023-05-21T08:30:59;8.60;;;2.47;;
53293;SDS011;39181;53.440;5.644;2023-05-21T08:33:26;8.13;;;2.30;;
53293;SDS011;39181;53.440;5.644;2023-05-21T08:35:51;8.77;;;2.40;;
53293;SDS011;39181;53.440;5.644;2023-05-21T08:38:17;7.57;;;2.45;;
53293;SDS011;39181;53.440;5.644;2023-05-21T08:40:44;8.75;;;2.00;;
53293;SDS011;39181;53.440;5.644;2023-05-21T08:43:11;6.28;;;2.22;;
53293;SDS011;39181;53.440;5.644;2023-05-21T08:45:40;5.60;;;2.05;;
53293;SDS011;39181;53.440;5.644;2023-05-21T08:48:09;9.63;;;2.20;;
53293;SDS011;39181;53.440;5.644;2023-05-21T08:50:38;6.35;;;2.30;;
53293;SDS011;39181;53.440;5.644;2023-05-21T08:53:04;8.32;;;2.85;;
53293;SDS011;39181;53.440;5.644;2023-05-21T08:55:30;4.57;;;2.00;;
53293;SDS011;39181;53.440;5.644;2023-05-21T08:57:57;7.72;;;2.55;;
53293;SDS011;39181;53.440;5.644;2023-05-21T09:00:23;5.28;;;2.20;;
53293;SDS011;39181;53.440;5.644;2023-05-21T09:02:49;4.88;;;2.65;;
53293;SDS011;39181;53.440;5.644;2023-05-21T09:05:18;7.28;;;2.40;;
53293;SDS011;39181;53.440;5.644;2023-05-21T09:07:49;5.05;;;2.30;;
53293;SDS011;39181;53.440;5.644;2023-05-21T09:10:26;8.48;;;2.17;;
53293;SDS011;39181;53.440;5.644;2023-05-21T09:12:57;7.80;;;2.35;;
53293;SDS011;39181;53.440;5.644;2023-05-21T09:15:23;6.25;;;2.22;;
53293;SDS011;39181;53.440;5.644;2023-05-21T09:17:49;8.32;;;2.40;;
53293;SDS011;39181;53.440;5.644;2023-05-21T09:20:15;6.25;;;2.50;;
53293;SDS011;39181;53.440;5.644;2023-05-21T09:25:07;9.60;;;2.72;;
53293;SDS011;39181;53.440;5.644;2023-05-21T09:27:34;7.82;;;2.38;;
53293;SDS011;39181;53.440;5.644;2023-05-21T09:30:04;5.63;;;1.92;;
53293;SDS011;39181;53.440;5.644;2023-05-21T09:32:33;9.43;;;2.08;;
53293;SDS011;39181;53.440;5.644;2023-05-21T09:35:09;7.70;;;3.03;;
53293;SDS011;39181;53.440;5.644;2023-05-21T09:40:12;8.05;;;2.10;;
53293;SDS011;39181;53.440;5.644;2023-05-21T09:42:46;7.15;;;2.20;;
53293;SDS011;39181;53.440;5.644;2023-05-21T09:45:18;8.98;;;2.45;;
53293;SDS011;39181;53.440;5.644;2023-05-21T09:47:44;5.55;;;1.77;;
53293;SDS011;39181;53.440;5.644;2023-05-21T09:50:12;6.13;;;2.13;;
53293;SDS011;39181;53.440;5.644;2023-05-21T09:52:41;6.93;;;2.20;;
53293;SDS011;39181;53.440;5.644;2023-05-21T09:55:09;4.55;;;1.60;;
53293;SDS011;39181;53.440;5.644;2023-05-21T09:57:40;24.55;;;3.80;;
53293;SDS011;39181;53.440;5.644;2023-05-21T10:00:07;6.03;;;1.55;;
53293;SDS011;39181;53.440;5.644;2023-05-21T10:02:54;12.68;;;2.70;;
53293;SDS011;39181;53.440;5.644;2023-05-21T10:05:33;4.00;;;2.00;;
53293;SDS011;39181;53.440;5.644;2023-05-21T10:07:59;7.88;;;1.60;;
53293;SDS011;39181;53.440;5.644;2023-05-21T10:10:27;6.85;;;1.80;;
53293;SDS011;39181;53.440;5.644;2023-05-21T10:12:54;5.20;;;2.15;;
53293;SDS011;39181;53.440;5.644;2023-05-21T10:15:23;6.90;;;1.70;;
53293;SDS011;39181;53.440;5.644;2023-05-21T10:17:50;4.28;;;1.77;;
53293;SDS011;39181;53.440;5.644;2023-05-21T10:20:17;5.25;;;2.15;;
53293;SDS011;39181;53.440;5.644;2023-05-21T10:22:43;4.65;;;2.10;;
53293;SDS011;39181;53.440;5.644;2023-05-21T10:25:09;8.65;;;1.85;;
53293;SDS011;39181;53.440;5.644;2023-05-21T10:27:37;7.53;;;2.22;;
53293;SDS011;39181;53.440;5.644;2023-05-21T10:30:03;6.60;;;2.70;;
53293;SDS011;39181;53.440;5.644;2023-05-21T10:32:30;6.45;;;2.72;;
53293;SDS011;39181;53.440;5.644;2023-05-21T10:34:56;5.13;;;2.17;;
53293;SDS011;39181;53.440;5.644;2023-05-21T10:37:23;8.98;;;2.85;;
53293;SDS011;39181;53.440;5.644;2023-05-21T10:39:50;6.13;;;3.15;;
53293;SDS011;39181;53.440;5.644;2023-05-21T10:45:21;7.32;;;2.83;;
53293;SDS011;39181;53.440;5.644;2023-05-21T10:57:14;9.05;;;3.15;;
53293;SDS011;39181;53.440;5.644;2023-05-21T11:00:04;9.43;;;3.00;;
53293;SDS011;39181;53.440;5.644;2023-05-21T11:02:31;7.13;;;2.85;;
53293;SDS011;39181;53.440;5.644;2023-05-21T11:04:58;7.57;;;2.85;;
53293;SDS011;39181;53.440;5.644;2023-05-21T11:07:48;9.70;;;3.33;;
53293;SDS011;39181;53.440;5.644;2023-05-21T11:13:14;8.35;;;3.25;;
53293;SDS011;39181;53.440;5.644;2023-05-21T11:21:02;11.85;;;2.90;;
53293;SDS011;39181;53.440;5.644;2023-05-21T11:26:18;11.23;;;3.75;;
53293;SDS011;39181;53.440;5.644;2023-05-21T11:31:28;10.18;;;3.50;;
53293;SDS011;39181;53.440;5.644;2023-05-21T11:34:14;12.10;;;3.40;;
53293;SDS011;39181;53.440;5.644;2023-05-21T11:37:21;9.40;;;3.40;;
53293;SDS011;39181;53.440;5.644;2023-05-21T11:39:57;8.40;;;3.70;;
53293;SDS011;39181;53.440;5.644;2023-05-21T11:42:42;9.57;;;3.90;;
53293;SDS011;39181;53.440;5.644;2023-05-21T11:45:16;8.00;;;3.45;;
53293;SDS011;39181;53.440;5.644;2023-05-21T11:47:46;7.82;;;3.28;;
53293;SDS011;39181;53.440;5.644;2023-05-21T11:50:13;10.63;;;3.20;;
53293;SDS011;39181;53.440;5.644;2023-05-21T11:52:40;8.25;;;3.28;;
53293;SDS011;39181;53.440;5.644;2023-05-21T11:55:06;9.50;;;3.45;;
53293;SDS011;39181;53.440;5.644;2023-05-21T11:57:33;9.35;;;3.05;;
53293;SDS011;39181;53.440;5.644;2023-05-21T11:59:59;5.88;;;3.03;;
53293;SDS011;39181;53.440;5.644;2023-05-21T12:02:26;13.13;;;4.10;;
53293;SDS011;39181;53.440;5.644;2023-05-21T12:04:54;10.40;;;3.58;;
53293;SDS011;39181;53.440;5.644;2023-05-21T12:07:24;10.32;;;3.53;;
53293;SDS011;39181;53.440;5.644;2023-05-21T12:09:52;7.40;;;3.30;;
53293;SDS011;39181;53.440;5.644;2023-05-21T12:12:19;8.30;;;3.03;;
53293;SDS011;39181;53.440;5.644;2023-05-21T12:14:46;11.18;;;4.25;;
53293;SDS011;39181;53.440;5.644;2023-05-21T12:17:21;7.32;;;3.25;;
53293;SDS011;39181;53.440;5.644;2023-05-21T12:19:50;12.35;;;3.10;;
53293;SDS011;39181;53.440;5.644;2023-05-21T12:22:18;8.07;;;2.92;;
53293;SDS011;39181;53.440;5.644;2023-05-21T12:24:44;5.40;;;2.97;;
53293;SDS011;39181;53.440;5.644;2023-05-21T12:27:10;5.35;;;2.95;;
53293;SDS011;39181;53.440;5.644;2023-05-21T12:29:37;6.60;;;3.33;;
53293;SDS011;39181;53.440;5.644;2023-05-21T12:32:07;9.43;;;2.95;;
53293;SDS011;39181;53.440;5.644;2023-05-21T12:34:41;10.23;;;2.92;;
53293;SDS011;39181;53.440;5.644;2023-05-21T12:37:10;10.55;;;3.13;;
53293;SDS011;39181;53.440;5.644;2023-05-21T12:39:45;10.50;;;3.25;;
53293;SDS011;39181;53.440;5.644;2023-05-21T12:42:12;11.45;;;3.08;;
53293;SDS011;39181;53.440;5.644;2023-05-21T12:44:40;7.80;;;2.92;;
53293;SDS011;39181;53.440;5.644;2023-05-21T12:47:10;8.55;;;3.00;;
53293;SDS011;39181;53.440;5.644;2023-05-21T12:49:37;7.82;;;3.40;;
53293;SDS011;39181;53.440;5.644;2023-05-21T12:52:12;7.53;;;2.85;;
53293;SDS011;39181;53.440;5.644;2023-05-21T12:54:39;9.25;;;3.60;;
53293;SDS011;39181;53.440;5.644;2023-05-21T12:57:12;7.35;;;3.00;;
53293;SDS011;39181;53.440;5.644;2023-05-21T12:59:46;9.98;;;2.97;;
53293;SDS011;39181;53.440;5.644;2023-05-21T13:02:21;12.25;;;3.63;;
53293;SDS011;39181;53.440;5.644;2023-05-21T13:04:47;7.60;;;3.33;;
53293;SDS011;39181;53.440;5.644;2023-05-21T13:07:14;24.80;;;4.38;;
53293;SDS011;39181;53.440;5.644;2023-05-21T13:09:40;9.25;;;3.33;;
53293;SDS011;39181;53.440;5.644;2023-05-21T13:12:06;10.48;;;4.13;;
53293;SDS011;39181;53.440;5.644;2023-05-21T13:14:32;7.00;;;3.53;;
53293;SDS011;39181;53.440;5.644;2023-05-21T13:16:57;8.93;;;3.75;;
53293;SDS011;39181;53.440;5.644;2023-05-21T13:19:23;9.10;;;4.00;;
53293;SDS011;39181;53.440;5.644;2023-05-21T13:21:48;11.48;;;4.63;;
53293;SDS011;39181;53.440;5.644;2023-05-21T13:24:14;9.60;;;4.35;;
53293;SDS011;39181;53.440;5.644;2023-05-21T13:26:40;12.05;;;3.90;;
53293;SDS011;39181;53.440;5.644;2023-05-21T13:29:05;10.00;;;3.92;;
53293;SDS011;39181;53.440;5.644;2023-05-21T13:31:31;12.85;;;4.53;;
53293;SDS011;39181;53.440;5.644;2023-05-21T13:33:56;11.93;;;4.07;;
53293;SDS011;39181;53.440;5.644;2023-05-21T13:36:22;10.80;;;3.67;;
53293;SDS011;39181;53.440;5.644;2023-05-21T13:38:47;11.15;;;4.07;;
53293;SDS011;39181;53.440;5.644;2023-05-21T13:41:13;9.10;;;4.20;;
53293;SDS011;39181;53.440;5.644;2023-05-21T13:43:41;9.80;;;4.60;;
53293;SDS011;39181;53.440;5.644;2023-05-21T13:46:06;12.77;;;5.03;;
53293;SDS011;39181;53.440;5.644;2023-05-21T13:48:32;7.95;;;4.35;;
53293;SDS011;39181;53.440;5.644;2023-05-21T13:50:58;12.85;;;5.10;;
53293;SDS011;39181;53.440;5.644;2023-05-21T13:53:23;10.75;;;5.40;;
53293;SDS011;39181;53.440;5.644;2023-05-21T13:55:49;9.98;;;5.05;;
53293;SDS011;39181;53.440;5.644;2023-05-21T13:58:15;12.25;;;5.70;;
53293;SDS011;39181;53.440;5.644;2023-05-21T14:00:41;11.27;;;4.88;;
53293;SDS011;39181;53.440;5.644;2023-05-21T14:03:07;15.73;;;5.63;;
53293;SDS011;39181;53.440;5.644;2023-05-21T14:05:34;10.88;;;4.80;;
53293;SDS011;39181;53.440;5.644;2023-05-21T14:07:59;11.20;;;5.00;;
53293;SDS011;39181;53.440;5.644;2023-05-21T14:10:25;12.52;;;5.57;;
53293;SDS011;39181;53.440;5.644;2023-05-21T14:12:51;12.10;;;4.78;;
53293;SDS011;39181;53.440;5.644;2023-05-21T14:15:17;10.02;;;4.50;;
53293;SDS011;39181;53.440;5.644;2023-05-21T14:17:42;14.75;;;5.55;;
53293;SDS011;39181;53.440;5.644;2023-05-21T14:20:08;15.10;;;5.80;;
53293;SDS011;39181;53.440;5.644;2023-05-21T14:22:34;13.38;;;5.65;;
53293;SDS011;39181;53.440;5.644;2023-05-21T14:24:59;11.05;;;5.57;;
53293;SDS011;39181;53.440;5.644;2023-05-21T14:27:25;15.43;;;5.78;;
53293;SDS011;39181;53.440;5.644;2023-05-21T14:29:51;10.73;;;5.45;;
53293;SDS011;39181;53.440;5.644;2023-05-21T14:32:17;11.57;;;5.32;;
53293;SDS011;39181;53.440;5.644;2023-05-21T14:34:43;15.57;;;5.95;;
53293;SDS011;39181;53.440;5.644;2023-05-21T14:37:08;11.52;;;4.65;;
53293;SDS011;39181;53.440;5.644;2023-05-21T14:39:34;10.88;;;5.03;;
53293;SDS011;39181;53.440;5.644;2023-05-21T14:42:01;14.55;;;4.90;;
53293;SDS011;39181;53.440;5.644;2023-05-21T14:44:28;11.32;;;4.93;;
53293;SDS011;39181;53.440;5.644;2023-05-21T14:46:54;16.05;;;5.38;;
53293;SDS011;39181;53.440;5.644;2023-05-21T14:49:19;13.50;;;5.70;;
53293;SDS011;39181;53.440;5.644;2023-05-21T14:51:45;13.50;;;6.13;;
53293;SDS011;39181;53.440;5.644;2023-05-21T14:54:11;13.65;;;6.20;;
53293;SDS011;39181;53.440;5.644;2023-05-21T14:56:37;15.30;;;6.32;;
53293;SDS011;39181;53.440;5.644;2023-05-21T14:59:03;15.15;;;6.35;;
53293;SDS011;39181;53.440;5.644;2023-05-21T15:01:28;14.52;;;6.43;;
53293;SDS011;39181;53.440;5.644;2023-05-21T15:03:54;13.32;;;6.47;;
53293;SDS011;39181;53.440;5.644;2023-05-21T15:06:22;14.63;;;5.45;;
53293;SDS011;39181;53.440;5.644;2023-05-21T15:08:48;15.32;;;5.43;;
53293;SDS011;39181;53.440;5.644;2023-05-21T15:11:13;15.02;;;5.70;;